Terminal Aerodrome Forecast
Issued by NWS St Louis, MO

Home | Current Version | Previous Version | Text Only | Print | Product List | Glossary On
Versions: 1 2 3 4 5 6 7 8 9 10 11 12 13 14 15 16 17
000
FTUS43 KLSX 151100 RRA
TAFCOU
TAF
KCOU 151142Z 1512/1612 09007KT P6SM SCT050 OVC120
     FM151600 09009KT P6SM BKN050 OVC100
      TEMPO 1516/1518 -RA
     FM160600 VRB03KT 4SM BR BKN020
     FM160900 VRB03KT 1SM BR BKN004=

USA.gov is the U.S. government's official web portal to all federal, state and local government web resources and services.